Time;durP1;ratioP1;P1;durP2;ratioP2;P2;SDS_P1;SDS_P2;PMS_P1;PMS_P2;Temp;Humidity;BMP_temperature;BMP_pressure;BME280_temperature;BME280_humidity;BME280_pressure;Samples;Min_cycle;Max_cycle;Signal;HPM_P1;HPM_P2
2023/08/08 00:00:51;;;;;;;0.10;0.10;;;13.60;58.00;;;;;;5072273;28;20233;-58
2023/08/08 00:03:22;;;;;;;0.10;0.10;;;13.70;58.00;;;;;;5072127;28;20206;-58
2023/08/08 00:05:54;;;;;;;0.10;0.10;;;13.70;58.00;;;;;;5072065;28;20218;-58
2023/08/08 00:08:25;;;;;;;0.20;0.20;;;13.70;57.90;;;;;;5079768;28;20190;-58
2023/08/08 00:10:56;;;;;;;0.10;0.10;;;13.70;58.40;;;;;;5091938;28;20205;-58
2023/08/08 00:13:26;;;;;;;0.10;0.10;;;13.70;57.90;;;;;;5084434;28;20195;-57
2023/08/08 00:15:57;;;;;;;0.10;0.10;;;13.80;57.90;;;;;;5082340;28;20221;-58
2023/08/08 00:18:28;;;;;;;0.10;0.10;;;13.80;57.90;;;;;;5099980;28;20198;-58
2023/08/08 00:21:00;;;;;;;0.10;0.10;;;13.80;57.90;;;;;;5070914;28;20191;-58
2023/08/08 00:23:31;;;;;;;0.10;0.10;;;13.80;57.90;;;;;;5071222;28;20203;-58
2023/08/08 00:26:01;;;;;;;0.10;0.10;;;13.80;57.90;;;;;;5080054;28;20210;-58
2023/08/08 00:28:32;;;;;;;0.10;0.10;;;13.90;57.90;;;;;;5091364;28;20594;-59
2023/08/08 00:31:03;;;;;;;0.10;0.10;;;13.90;57.80;;;;;;5088646;28;20194;-58
2023/08/08 00:33:33;;;;;;;0.10;0.10;;;13.90;57.80;;;;;;5087057;28;20186;-58
2023/08/08 00:36:06;;;;;;;0.10;0.10;;;13.90;57.80;;;;;;5111532;28;20213;-59
2023/08/08 00:38:36;;;;;;;0.10;0.10;;;13.90;57.80;;;;;;5110589;28;20300;-59
2023/08/08 00:41:07;;;;;;;0.10;0.10;;;13.90;57.80;;;;;;5112301;28;20193;-58
2023/08/08 00:43:38;;;;;;;0.10;0.10;;;14.00;57.80;;;;;;5111179;28;20185;-58
2023/08/08 00:46:08;;;;;;;0.10;0.10;;;14.00;57.80;;;;;;5112290;28;20218;-58
2023/08/08 00:48:39;;;;;;;0.10;0.10;;;14.00;57.80;;;;;;5111042;28;20197;-58
2023/08/08 00:51:12;;;;;;;0.10;0.10;;;14.00;57.80;;;;;;5111547;28;20201;-58
2023/08/08 00:53:43;;;;;;;0.10;0.10;;;14.00;57.80;;;;;;5099922;28;20244;-58
2023/08/08 00:56:16;;;;;;;0.10;0.10;;;14.10;57.80;;;;;;5090847;28;20904;-58
2023/08/08 00:58:50;;;;;;;0.10;0.10;;;14.10;57.80;;;;;;5091567;28;20265;-58
2023/08/08 01:01:21;;;;;;;0.10;0.10;;;14.10;58.40;;;;;;5085504;28;20266;-58
2023/08/08 01:03:53;;;;;;;0.10;0.10;;;14.10;57.70;;;;;;5079813;28;20201;-58
2023/08/08 01:06:31;;;;;;;0.10;0.10;;;14.10;57.70;;;;;;5093930;28;20304;-58
2023/08/08 01:09:07;;;;;;;0.10;0.10;;;14.10;57.80;;;;;;5100485;28;20185;-58
2023/08/08 01:11:39;;;;;;;0.10;0.10;;;14.20;57.80;;;;;;5114539;28;20287;-58
2023/08/08 01:14:11;;;;;;;0.10;0.10;;;14.20;57.80;;;;;;5115323;28;20200;-58
2023/08/08 01:16:42;;;;;;;0.10;0.10;;;14.20;57.80;;;;;;5114961;28;20246;-57
2023/08/08 01:19:21;;;;;;;0.10;0.10;;;14.20;57.70;;;;;;5114026;28;20600;-58
2023/08/08 01:21:56;;;;;;;0.10;0.10;;;14.30;57.80;;;;;;5114810;28;20640;-58
2023/08/08 01:24:30;;;;;;;0.10;0.10;;;14.30;57.80;;;;;;5090830;28;20236;-58
2023/08/08 01:27:01;;;;;;;0.10;0.10;;;14.30;57.80;;;;;;5095141;28;20584;-58
2023/08/08 01:29:32;;;;;;;0.10;0.10;;;14.30;57.80;;;;;;5094788;28;20198;-58
2023/08/08 01:32:02;;;;;;;0.10;0.10;;;14.30;57.80;;;;;;5094666;28;20194;-58
2023/08/08 01:34:33;;;;;;;0.10;0.10;;;14.30;57.80;;;;;;5094075;28;20198;-58
2023/08/08 01:37:09;;;;;;;0.10;0.10;;;14.40;57.80;;;;;;5094664;28;20214;-58
2023/08/08 01:39:43;;;;;;;0.10;0.10;;;14.40;57.70;;;;;;5108047;28;20284;-59
2023/08/08 01:42:14;;;;;;;0.10;0.10;;;14.40;57.70;;;;;;5115317;28;20194;-59
2023/08/08 01:44:45;;;;;;;0.10;0.10;;;14.40;57.60;;;;;;5113961;28;20232;-59
2023/08/08 01:47:16;;;;;;;0.10;0.10;;;14.40;57.60;;;;;;5114839;28;20217;-59
2023/08/08 01:49:47;;;;;;;0.10;0.10;;;14.50;57.70;;;;;;5115014;28;20190;-59
2023/08/08 01:52:17;;;;;;;0.10;0.10;;;14.50;57.70;;;;;;5114664;28;20193;-59
2023/08/08 01:54:50;;;;;;;0.10;0.10;;;14.50;58.30;;;;;;5092028;27;20217;-58
2023/08/08 01:57:20;;;;;;;0.10;0.10;;;14.50;57.70;;;;;;5093696;28;20248;-59
2023/08/08 01:59:51;;;;;;;0.10;0.10;;;14.50;57.70;;;;;;5094150;28;20190;-59
2023/08/08 02:02:22;;;;;;;0.10;0.10;;;14.50;57.70;;;;;;5093366;28;20294;-59
2023/08/08 02:04:53;;;;;;;0.10;0.10;;;14.50;57.60;;;;;;5093949;28;20225;-59
2023/08/08 02:07:23;;;;;;;0.10;0.10;;;14.50;57.60;;;;;;5092375;28;20278;-59
2023/08/08 02:09:56;;;;;;;0.10;0.10;;;14.60;57.60;;;;;;5101709;28;20549;-58
2023/08/08 02:12:26;;;;;;;0.10;0.10;;;14.60;57.60;;;;;;5114789;28;20218;-59
2023/08/08 02:14:57;;;;;;;0.10;0.10;;;14.60;57.60;;;;;;5113947;28;20196;-59
2023/08/08 02:17:28;;;;;;;0.10;0.10;;;14.60;57.60;;;;;;5113437;28;20209;-58
2023/08/08 02:19:59;;;;;;;0.10;0.10;;;14.60;57.60;;;;;;5113840;28;20190;-59
2023/08/08 02:22:29;;;;;;;0.10;0.10;;;14.60;57.60;;;;;;5113782;28;20278;-59
2023/08/08 02:25:02;;;;;;;0.05;0.05;;;14.70;57.60;;;;;;5113548;28;20224;-59
2023/08/08 02:27:33;;;;;;;0.10;0.10;;;14.60;57.60;;;;;;5092656;28;20194;-58
2023/08/08 02:30:03;;;;;;;0.08;0.08;;;14.70;57.60;;;;;;5107947;28;20197;-59
2023/08/08 02:32:34;;;;;;;0.10;0.10;;;14.70;57.60;;;;;;5113926;28;20278;-58
2023/08/08 02:35:05;;;;;;;0.10;0.10;;;14.70;57.70;;;;;;5108829;28;20194;-59
2023/08/08 02:37:35;;;;;;;0.10;0.10;;;14.70;57.70;;;;;;5093892;28;20195;-59
2023/08/08 02:40:09;;;;;;;0.10;0.10;;;14.80;57.70;;;;;;5093861;28;20587;-59
2023/08/08 02:42:40;;;;;;;0.10;0.10;;;14.80;57.70;;;;;;5094034;28;20229;-58
2023/08/08 02:45:11;;;;;;;0.00;0.00;;;14.80;57.60;;;;;;5093523;28;20257;-59
2023/08/08 02:47:42;;;;;;;0.10;0.10;;;14.80;57.70;;;;;;5093820;28;20202;-59
2023/08/08 02:50:13;;;;;;;0.10;0.10;;;14.80;57.70;;;;;;5094173;28;20194;-59
2023/08/08 02:52:43;;;;;;;0.10;0.10;;;14.80;57.60;;;;;;5091711;28;20559;-59
2023/08/08 02:55:16;;;;;;;0.10;0.10;;;14.80;57.60;;;;;;5072561;28;20201;-59
2023/08/08 02:57:46;;;;;;;0.10;0.10;;;14.80;57.60;;;;;;5072611;28;20264;-59
2023/08/08 03:00:17;;;;;;;0.10;0.10;;;14.80;57.60;;;;;;5072920;28;20195;-59
2023/08/08 03:02:48;;;;;;;0.20;0.20;;;14.90;57.60;;;;;;5073182;28;20206;-60
2023/08/08 03:05:19;;;;;;;0.10;0.10;;;14.90;57.60;;;;;;5075670;28;20215;-59
2023/08/08 03:07:49;;;;;;;0.10;0.10;;;14.90;57.60;;;;;;5072756;28;20615;-59
2023/08/08 03:10:22;;;;;;;0.10;0.10;;;14.90;57.60;;;;;;5072452;28;20191;-59
2023/08/08 03:12:52;;;;;;;0.10;0.10;;;14.90;57.60;;;;;;5072605;28;20693;-59
2023/08/08 03:15:23;;;;;;;0.10;0.10;;;14.90;57.60;;;;;;5072644;28;20195;-59
2023/08/08 03:17:54;;;;;;;0.10;0.10;;;15.00;57.70;;;;;;5072650;28;20198;-59
2023/08/08 03:20:24;;;;;;;0.10;0.10;;;15.00;57.60;;;;;;5075336;28;20646;-59
2023/08/08 03:22:55;;;;;;;0.10;0.10;;;15.00;57.60;;;;;;5075374;28;20220;-59
2023/08/08 03:25:27;;;;;;;0.10;0.10;;;15.00;57.60;;;;;;5092427;28;20577;-59
2023/08/08 03:27:58;;;;;;;0.10;0.10;;;15.10;57.70;;;;;;5092668;28;20230;-58
2023/08/08 03:30:29;;;;;;;0.10;0.10;;;15.10;57.70;;;;;;5093062;28;20198;-59
2023/08/08 03:33:02;;;;;;;0.10;0.10;;;15.10;57.60;;;;;;5092242;28;20190;-59
2023/08/08 03:35:33;;;;;;;0.10;0.10;;;15.10;57.60;;;;;;5092259;28;20213;-59
2023/08/08 03:38:04;;;;;;;0.10;0.10;;;15.10;57.60;;;;;;5092751;28;20565;-59
2023/08/08 03:40:37;;;;;;;0.10;0.10;;;15.20;57.60;;;;;;5092829;28;20379;-59
2023/08/08 03:43:07;;;;;;;0.10;0.10;;;15.20;57.60;;;;;;5092644;28;20225;-59
2023/08/08 03:45:39;;;;;;;0.00;0.00;;;15.20;57.50;;;;;;5092659;28;20230;-59
2023/08/08 03:48:10;;;;;;;0.10;0.10;;;15.20;57.40;;;;;;5092690;28;20202;-59
2023/08/08 03:50:41;;;;;;;0.10;0.10;;;15.20;58.00;;;;;;5092975;28;20613;-59
2023/08/08 03:53:11;;;;;;;0.10;0.10;;;15.30;57.50;;;;;;5087366;28;20202;-59
2023/08/08 03:55:44;;;;;;;0.10;0.10;;;15.30;57.50;;;;;;5071830;28;20222;-59
2023/08/08 03:58:14;;;;;;;0.10;0.10;;;15.30;57.40;;;;;;5088930;28;20224;-59
2023/08/08 04:00:46;;;;;;;0.00;0.00;;;15.30;57.40;;;;;;5092178;28;20662;-59
2023/08/08 04:03:17;;;;;;;0.10;0.10;;;15.40;57.40;;;;;;5092034;28;20255;-58
2023/08/08 04:05:49;;;;;;;0.10;0.10;;;15.40;57.40;;;;;;5091829;28;20226;-58
2023/08/08 04:08:19;;;;;;;0.00;0.00;;;15.40;57.30;;;;;;5092449;28;20190;-59
2023/08/08 04:10:52;;;;;;;0.10;0.10;;;15.40;57.30;;;;;;5092129;28;20566;-59
2023/08/08 04:13:23;;;;;;;0.10;0.10;;;15.40;57.30;;;;;;5092327;28;20201;-59
2023/08/08 04:15:53;;;;;;;0.10;0.10;;;15.50;57.30;;;;;;5075045;28;20215;-59
2023/08/08 04:18:24;;;;;;;0.00;0.00;;;15.50;57.20;;;;;;5071455;28;20195;-59
2023/08/08 04:20:55;;;;;;;0.10;0.10;;;15.50;57.10;;;;;;5080682;28;20596;-59
2023/08/08 04:23:26;;;;;;;0.10;0.10;;;15.50;57.10;;;;;;5077994;28;20259;-59
2023/08/08 04:25:58;;;;;;;0.00;0.00;;;15.50;57.10;;;;;;5090347;28;20313;-59
2023/08/08 04:28:29;;;;;;;0.10;0.10;;;15.50;57.10;;;;;;5090820;28;20198;-59
2023/08/08 04:31:00;;;;;;;0.10;0.10;;;15.50;57.10;;;;;;5110618;28;20235;-59
2023/08/08 04:33:30;;;;;;;0.10;0.10;;;15.60;57.10;;;;;;5097764;28;20197;-59
2023/08/08 04:36:01;;;;;;;0.10;0.10;;;15.60;57.00;;;;;;5092085;28;20581;-59
2023/08/08 04:38:31;;;;;;;0.05;0.05;;;15.60;57.00;;;;;;5091014;28;20182;-59
2023/08/08 04:41:04;;;;;;;0.10;0.10;;;15.60;57.00;;;;;;5090333;28;20198;-59
2023/08/08 04:43:34;;;;;;;0.00;0.00;;;15.60;57.00;;;;;;5091401;28;20194;-59
2023/08/08 04:46:05;;;;;;;0.10;0.10;;;15.60;57.00;;;;;;5090573;28;20229;-59
2023/08/08 04:48:37;;;;;;;0.10;0.10;;;15.60;56.90;;;;;;5091412;28;20698;-59
2023/08/08 04:51:07;;;;;;;0.10;0.10;;;15.60;56.90;;;;;;5091159;28;20194;-60
2023/08/08 04:53:38;;;;;;;0.10;0.10;;;15.60;57.00;;;;;;5082272;28;20202;-60
2023/08/08 04:56:10;;;;;;;0.10;0.10;;;15.60;56.90;;;;;;5090053;28;20206;-60
2023/08/08 04:58:41;;;;;;;0.05;0.05;;;15.60;56.90;;;;;;5090590;28;20259;-59
2023/08/08 05:01:14;;;;;;;0.00;0.00;;;15.70;56.90;;;;;;5091485;28;20255;-59
2023/08/08 05:03:45;;;;;;;0.00;0.00;;;15.70;56.90;;;;;;5090251;28;20210;-59
2023/08/08 05:06:15;;;;;;;0.10;0.10;;;15.70;56.80;;;;;;5090827;28;20244;-60
2023/08/08 05:08:46;;;;;;;0.10;0.10;;;15.70;57.40;;;;;;5086328;28;20193;-59
2023/08/08 05:11:19;;;;;;;0.10;0.10;;;15.70;56.80;;;;;;5091158;28;20637;-60
2023/08/08 05:13:49;;;;;;;0.10;0.10;;;15.70;56.80;;;;;;5090865;28;20201;-60
2023/08/08 05:16:20;;;;;;;0.10;0.10;;;15.70;56.80;;;;;;5104250;28;20268;-59
2023/08/08 05:18:51;;;;;;;0.10;0.10;;;15.70;56.80;;;;;;5091267;28;20611;-60
2023/08/08 05:21:21;;;;;;;0.00;0.00;;;15.70;56.70;;;;;;5091673;28;20202;-60
2023/08/08 05:23:52;;;;;;;0.10;0.10;;;15.70;56.70;;;;;;5082478;28;20211;-60
2023/08/08 05:26:24;;;;;;;0.10;0.10;;;15.70;56.60;;;;;;5070637;28;20233;-59
2023/08/08 05:28:55;;;;;;;0.10;0.10;;;15.70;56.60;;;;;;5082349;28;20202;-59
2023/08/08 05:31:26;;;;;;;0.10;0.10;;;15.70;56.60;;;;;;5091065;28;20194;-59
2023/08/08 05:33:56;;;;;;;0.10;0.10;;;15.70;56.60;;;;;;5091747;28;20355;-60
2023/08/08 05:36:27;;;;;;;0.10;0.10;;;15.70;56.50;;;;;;5091235;28;20720;-59
2023/08/08 05:38:58;;;;;;;0.08;0.08;;;15.60;56.50;;;;;;5090837;28;20666;-59
2023/08/08 05:41:30;;;;;;;0.10;0.10;;;15.60;56.50;;;;;;5091427;28;20190;-59
2023/08/08 05:44:01;;;;;;;0.10;0.10;;;15.70;56.60;;;;;;5091561;28;20199;-60
2023/08/08 05:46:31;;;;;;;0.10;0.10;;;15.60;56.60;;;;;;5091271;28;20626;-59
2023/08/08 05:49:02;;;;;;;0.08;0.08;;;15.60;56.60;;;;;;5091139;28;20654;-59
2023/08/08 05:51:32;;;;;;;0.00;0.00;;;15.70;56.60;;;;;;5092223;28;20429;-59
2023/08/08 05:54:03;;;;;;;0.10;0.10;;;15.60;56.60;;;;;;5082838;28;20209;-59
2023/08/08 05:56:40;;;;;;;0.10;0.10;;;15.60;56.50;;;;;;5074689;28;20305;-59
2023/08/08 05:59:11;;;;;;;0.05;0.05;;;15.60;56.40;;;;;;5074404;28;20194;-59
2023/08/08 06:01:42;;;;;;;0.10;0.10;;;15.60;56.40;;;;;;5074318;28;20254;-59
2023/08/08 06:04:13;;;;;;;0.10;0.10;;;15.60;56.40;;;;;;5074331;28;20248;-59
2023/08/08 06:06:44;;;;;;;0.10;0.10;;;15.60;56.40;;;;;;5074280;28;20242;-59
2023/08/08 06:09:15;;;;;;;0.00;0.00;;;15.60;56.40;;;;;;5074320;28;20195;-59
2023/08/08 06:11:47;;;;;;;0.10;0.10;;;15.50;56.30;;;;;;5074373;28;20199;-59
2023/08/08 06:14:18;;;;;;;0.00;0.00;;;15.50;56.30;;;;;;5074262;28;20642;-59
2023/08/08 06:16:48;;;;;;;0.10;0.10;;;15.50;56.30;;;;;;5074176;28;20219;-59
2023/08/08 06:19:19;;;;;;;0.10;0.10;;;15.50;56.30;;;;;;5073960;28;20206;-59
2023/08/08 06:21:50;;;;;;;0.10;0.10;;;15.50;56.30;;;;;;5073831;28;20195;-59
2023/08/08 06:24:21;;;;;;;0.10;0.10;;;15.50;56.30;;;;;;5088469;28;20290;-59
2023/08/08 06:26:53;;;;;;;0.10;0.10;;;15.50;56.30;;;;;;5083868;28;20237;-59
2023/08/08 06:29:24;;;;;;;0.10;0.10;;;15.40;56.20;;;;;;5092682;28;20194;-59
2023/08/08 06:31:55;;;;;;;0.10;0.10;;;15.40;56.20;;;;;;5088782;28;20191;-59
2023/08/08 06:34:25;;;;;;;0.10;0.10;;;15.40;56.20;;;;;;5073178;28;20534;-59
2023/08/08 06:36:56;;;;;;;0.10;0.10;;;15.40;56.20;;;;;;5073204;28;20215;-59
2023/08/08 06:39:26;;;;;;;0.10;0.10;;;15.40;56.30;;;;;;5072611;28;20202;-59
2023/08/08 06:41:59;;;;;;;0.10;0.10;;;15.40;56.20;;;;;;5073508;28;20194;-59
2023/08/08 06:44:30;;;;;;;0.10;0.10;;;15.40;56.20;;;;;;5081024;28;20676;-59
2023/08/08 06:47:00;;;;;;;0.10;0.10;;;15.40;56.20;;;;;;5092787;28;20225;-59
2023/08/08 06:49:31;;;;;;;0.10;0.10;;;15.40;56.20;;;;;;5092957;28;20194;-59
2023/08/08 06:52:01;;;;;;;0.10;0.10;;;15.30;56.10;;;;;;5092915;28;20666;-59
2023/08/08 06:54:32;;;;;;;0.10;0.10;;;15.30;56.10;;;;;;5076493;28;20694;-59
2023/08/08 06:57:05;;;;;;;0.10;0.10;;;15.30;56.10;;;;;;5072313;28;20226;-59
2023/08/08 06:59:35;;;;;;;0.03;0.03;;;15.30;56.10;;;;;;5073130;28;20202;-59
2023/08/08 07:02:07;;;;;;;0.10;0.10;;;15.30;56.10;;;;;;5072530;28;20194;-59
2023/08/08 07:04:37;;;;;;;0.10;0.10;;;15.30;56.10;;;;;;5072350;28;20294;-59
2023/08/08 07:07:08;;;;;;;0.10;0.10;;;15.20;56.10;;;;;;5071788;28;20226;-59
2023/08/08 07:09:39;;;;;;;0.10;0.10;;;15.20;56.10;;;;;;5072384;28;20206;-59
2023/08/08 07:12:12;;;;;;;0.10;0.10;;;15.20;56.10;;;;;;5072829;28;20634;-59
2023/08/08 07:14:42;;;;;;;0.10;0.10;;;15.20;56.10;;;;;;5072883;28;20673;-59
2023/08/08 07:17:13;;;;;;;0.03;0.03;;;15.20;56.10;;;;;;5072435;28;20218;-59
2023/08/08 07:19:43;;;;;;;0.10;0.10;;;15.20;56.10;;;;;;5074201;28;20198;-59
2023/08/08 07:22:14;;;;;;;0.10;0.10;;;15.20;56.10;;;;;;5090720;28;20670;-59
2023/08/08 07:24:45;;;;;;;0.10;0.10;;;15.10;56.10;;;;;;5092016;28;20214;-58
2023/08/08 07:27:17;;;;;;;0.10;0.10;;;15.10;56.10;;;;;;5092127;28;20229;-59
2023/08/08 07:29:48;;;;;;;0.00;0.00;;;15.10;56.10;;;;;;5092571;28;20225;-60
2023/08/08 07:32:19;;;;;;;0.08;0.08;;;15.10;56.10;;;;;;5090247;28;20281;-59
2023/08/08 07:34:49;;;;;;;0.10;0.10;;;15.10;56.10;;;;;;5072086;28;20202;-59
2023/08/08 07:37:20;;;;;;;0.10;0.10;;;15.10;56.10;;;;;;5085997;28;20233;-59
2023/08/08 07:39:54;;;;;;;0.10;0.10;;;15.10;56.10;;;;;;5092495;28;20198;-59
2023/08/08 07:42:27;;;;;;;0.10;0.10;;;15.00;56.10;;;;;;5091073;28;20193;-59
2023/08/08 07:44:58;;;;;;;0.10;0.10;;;15.00;56.10;;;;;;5091048;28;20191;-60
2023/08/08 07:47:29;;;;;;;0.10;0.10;;;15.00;56.10;;;;;;5091633;28;20617;-59
2023/08/08 07:50:00;;;;;;;0.10;0.10;;;15.00;56.10;;;;;;5092005;28;20281;-59
2023/08/08 07:52:31;;;;;;;0.10;0.10;;;15.00;56.10;;;;;;5092343;28;20301;-60
2023/08/08 07:55:01;;;;;;;0.10;0.10;;;15.00;56.10;;;;;;5071911;28;20201;-59
2023/08/08 07:57:35;;;;;;;0.10;0.10;;;15.00;56.10;;;;;;5070431;28;20632;-59
2023/08/08 08:00:11;;;;;;;0.10;0.10;;;14.90;56.00;;;;;;5071137;28;20618;-59
2023/08/08 08:02:42;;;;;;;0.10;0.10;;;14.90;56.00;;;;;;5071879;28;20199;-59
2023/08/08 08:05:13;;;;;;;0.10;0.10;;;14.90;56.00;;;;;;5071150;28;20201;-59
2023/08/08 08:07:44;;;;;;;0.10;0.10;;;14.90;56.00;;;;;;5080174;28;20560;-59
2023/08/08 08:10:15;;;;;;;0.10;0.10;;;14.90;56.10;;;;;;5091877;28;20194;-59
2023/08/08 08:12:48;;;;;;;0.10;0.10;;;14.90;56.10;;;;;;5091337;28;20205;-59
2023/08/08 08:15:18;;;;;;;0.03;0.03;;;14.90;56.00;;;;;;5090909;28;20197;-59
2023/08/08 08:17:49;;;;;;;0.08;0.08;;;14.80;56.00;;;;;;5091579;28;20198;-59
2023/08/08 08:20:20;;;;;;;0.03;0.03;;;14.80;56.00;;;;;;5091987;28;20201;-59
2023/08/08 08:22:50;;;;;;;0.10;0.10;;;14.80;56.00;;;;;;5089384;28;20202;-59
2023/08/08 08:25:21;;;;;;;0.10;0.10;;;14.80;56.00;;;;;;5071221;28;20553;-59
2023/08/08 08:27:54;;;;;;;0.10;0.10;;;14.80;56.00;;;;;;5070894;28;20230;-59
2023/08/08 08:30:25;;;;;;;0.10;0.10;;;14.80;56.00;;;;;;5070843;28;20196;-59
2023/08/08 08:32:57;;;;;;;0.10;0.10;;;14.80;56.00;;;;;;5071094;28;20199;-59
2023/08/08 08:35:27;;;;;;;0.10;0.10;;;14.80;56.00;;;;;;5071135;28;20244;-59
2023/08/08 08:37:58;;;;;;;0.10;0.10;;;14.80;56.00;;;;;;5071121;28;20198;-59
2023/08/08 08:40:30;;;;;;;0.10;0.10;;;14.70;56.00;;;;;;5070979;28;20667;-59
2023/08/08 08:43:03;;;;;;;0.10;0.10;;;14.70;56.00;;;;;;5071333;28;20206;-59
2023/08/08 08:45:37;;;;;;;0.10;0.10;;;14.70;56.00;;;;;;5070856;28;20225;-59
2023/08/08 08:48:09;;;;;;;0.10;0.10;;;14.70;55.90;;;;;;5071066;28;20233;-59
2023/08/08 08:50:41;;;;;;;0.10;0.10;;;14.70;56.00;;;;;;5071099;28;20199;-59
2023/08/08 08:53:12;;;;;;;0.10;0.10;;;14.70;56.00;;;;;;5071336;28;20230;-59
2023/08/08 08:55:43;;;;;;;0.10;0.10;;;14.60;55.90;;;;;;5073510;28;20202;-59
2023/08/08 08:58:18;;;;;;;0.10;0.10;;;14.60;55.90;;;;;;5072254;28;20565;-59
2023/08/08 09:00:50;;;;;;;0.10;0.10;;;14.60;55.90;;;;;;5086560;28;20685;-59
2023/08/08 09:03:21;;;;;;;0.10;0.10;;;14.60;55.90;;;;;;5091318;28;20630;-59
2023/08/08 09:05:54;;;;;;;0.10;0.10;;;14.60;55.90;;;;;;5072740;28;20253;-59
2023/08/08 09:08:25;;;;;;;0.10;0.10;;;14.60;55.90;;;;;;5072422;28;20240;-59
2023/08/08 09:10:56;;;;;;;0.10;0.10;;;14.60;55.90;;;;;;5069778;28;20237;-59
2023/08/08 09:13:28;;;;;;;0.10;0.10;;;14.60;55.90;;;;;;5070689;28;20237;-59
2023/08/08 09:15:59;;;;;;;0.10;0.10;;;14.50;55.90;;;;;;5070176;28;20219;-59
2023/08/08 09:18:29;;;;;;;0.00;0.00;;;14.50;55.80;;;;;;5090461;28;20201;-59
2023/08/08 09:21:01;;;;;;;0.10;0.10;;;14.50;55.80;;;;;;5086982;28;20661;-59
2023/08/08 09:23:32;;;;;;;0.10;0.10;;;14.50;55.80;;;;;;5090097;28;20202;-59
2023/08/08 09:26:03;;;;;;;0.10;0.10;;;14.50;55.80;;;;;;5091391;28;20760;-59
2023/08/08 09:28:35;;;;;;;0.10;0.10;;;14.50;55.80;;;;;;5094627;28;20221;-59
2023/08/08 09:31:06;;;;;;;0.10;0.10;;;14.40;55.80;;;;;;5095256;28;20197;-59
2023/08/08 09:33:37;;;;;;;0.10;0.10;;;14.40;55.80;;;;;;5094236;28;20201;-59
2023/08/08 09:36:08;;;;;;;0.10;0.10;;;14.40;55.90;;;;;;5094508;28;20214;-59
2023/08/08 09:38:38;;;;;;;0.10;0.10;;;14.40;56.40;;;;;;5094000;28;20205;-59
2023/08/08 09:41:09;;;;;;;0.10;0.10;;;14.40;55.90;;;;;;5093714;28;20198;-59
2023/08/08 09:43:42;;;;;;;0.10;0.10;;;14.40;55.80;;;;;;5094045;28;20645;-59
2023/08/08 09:46:12;;;;;;;0.10;0.10;;;14.40;55.90;;;;;;5093549;28;20489;-59
2023/08/08 09:48:44;;;;;;;0.10;0.10;;;14.40;55.80;;;;;;5093757;28;20217;-59
2023/08/08 09:51:16;;;;;;;0.10;0.10;;;14.40;55.80;;;;;;5094118;28;20673;-59
2023/08/08 09:53:48;;;;;;;0.20;0.20;;;14.40;55.80;;;;;;5093881;28;20201;-59
2023/08/08 09:56:18;;;;;;;0.10;0.10;;;14.30;55.80;;;;;;5093192;28;20221;-58
2023/08/08 09:58:51;;;;;;;0.10;0.10;;;14.30;55.80;;;;;;5093470;28;20225;-59
2023/08/08 10:01:23;;;;;;;0.10;0.10;;;14.30;55.80;;;;;;5092977;28;20205;-58
2023/08/08 10:03:55;;;;;;;0.10;0.10;;;14.30;55.80;;;;;;5093217;28;20222;-57
2023/08/08 10:06:25;;;;;;;0.00;0.00;;;14.30;55.80;;;;;;5094439;28;20630;-58
2023/08/08 10:08:56;;;;;;;0.10;0.10;;;14.20;55.70;;;;;;5092760;28;20232;-58
2023/08/08 10:11:28;;;;;;;0.10;0.10;;;14.20;55.70;;;;;;5094286;28;20703;-58
2023/08/08 10:14:04;;;;;;;0.10;0.10;;;14.20;55.70;;;;;;5093765;28;20259;-57
2023/08/08 10:16:36;;;;;;;0.10;0.10;;;14.20;55.70;;;;;;5093619;28;20217;-57
2023/08/08 10:19:07;;;;;;;0.10;0.10;;;14.20;55.70;;;;;;5093669;28;20205;-58
2023/08/08 10:21:39;;;;;;;0.10;0.10;;;14.20;55.70;;;;;;5093355;28;20197;-57
2023/08/08 10:24:12;;;;;;;0.10;0.10;;;14.20;55.70;;;;;;5079546;28;20207;-58
2023/08/08 10:26:56;;;;;;;0.10;0.10;;;14.20;55.70;;;;;;5073227;28;20238;-58
2023/08/08 10:29:30;;;;;;;0.10;0.10;;;14.20;55.80;;;;;;5073141;28;20202;-58
2023/08/08 10:32:03;;;;;;;0.10;0.10;;;14.20;55.80;;;;;;5072770;28;20194;-57
2023/08/08 10:34:42;;;;;;;0.10;0.10;;;14.20;55.70;;;;;;5073145;28;20199;-58
2023/08/08 10:37:14;;;;;;;0.10;0.10;;;14.20;56.30;;;;;;5072507;28;20233;-57
2023/08/08 10:39:54;;;;;;;0.10;0.10;;;14.10;55.70;;;;;;5073370;28;20203;-58
2023/08/08 10:42:27;;;;;;;0.05;0.05;;;14.20;55.70;;;;;;5071435;28;20229;-58
2023/08/08 10:45:00;;;;;;;0.20;0.20;;;14.10;55.70;;;;;;5072793;28;20672;-57
2023/08/08 10:47:36;;;;;;;0.10;0.10;;;14.10;55.70;;;;;;5072028;28;20241;-58
2023/08/08 10:50:11;;;;;;;0.10;0.10;;;14.10;55.70;;;;;;5086941;28;20193;-57
2023/08/08 10:52:58;;;;;;;0.10;0.10;;;14.10;55.70;;;;;;5091801;28;20556;-58
2023/08/08 10:55:34;;;;;;;0.10;0.10;;;14.10;55.70;;;;;;5092489;28;20218;-57
2023/08/08 10:58:09;;;;;;;0.10;0.10;;;14.00;55.60;;;;;;5092614;28;20613;-58
2023/08/08 11:00:42;;;;;;;0.10;0.10;;;14.00;55.60;;;;;;5093048;28;20197;-57
2023/08/08 11:03:14;;;;;;;0.10;0.10;;;14.00;55.70;;;;;;5092699;28;20198;-57
2023/08/08 11:05:46;;;;;;;0.10;0.10;;;14.00;55.70;;;;;;5092566;28;20217;-58
2023/08/08 11:08:17;;;;;;;0.10;0.10;;;14.00;55.70;;;;;;5092331;28;20605;-57
2023/08/08 11:10:53;;;;;;;0.10;0.10;;;14.00;55.70;;;;;;5092409;28;20202;-58
2023/08/08 11:13:23;;;;;;;0.10;0.10;;;14.00;55.70;;;;;;5092809;28;20201;-58
2023/08/08 11:15:56;;;;;;;0.10;0.10;;;14.00;55.60;;;;;;5074406;28;20243;-57
2023/08/08 11:18:27;;;;;;;0.10;0.10;;;14.00;55.60;;;;;;5072576;28;20654;-58
2023/08/08 11:20:58;;;;;;;0.10;0.10;;;14.00;55.60;;;;;;5074508;28;20197;-58
2023/08/08 11:23:29;;;;;;;0.10;0.10;;;14.00;55.70;;;;;;5080001;28;20206;-58
2023/08/08 11:26:00;;;;;;;0.10;0.10;;;13.90;55.60;;;;;;5092739;28;20471;-58
2023/08/08 11:28:30;;;;;;;0.10;0.10;;;13.90;55.60;;;;;;5092466;28;20224;-57
2023/08/08 11:31:04;;;;;;;0.10;0.10;;;13.90;55.70;;;;;;5093003;28;20202;-58
2023/08/08 11:33:35;;;;;;;0.10;0.10;;;13.90;55.60;;;;;;5086354;28;20211;-57
2023/08/08 11:36:07;;;;;;;0.10;0.10;;;13.90;55.60;;;;;;5071943;28;20219;-57
2023/08/08 11:38:38;;;;;;;0.10;0.10;;;13.90;55.60;;;;;;5071784;28;20298;-58
2023/08/08 11:41:09;;;;;;;0.20;0.20;;;13.90;55.60;;;;;;5077104;28;20711;-58
2023/08/08 11:43:40;;;;;;;0.10;0.10;;;13.90;55.60;;;;;;5092430;28;20198;-57
2023/08/08 11:46:16;;;;;;;0.10;0.10;;;13.80;55.60;;;;;;5091544;28;20301;-58
2023/08/08 11:48:49;;;;;;;0.10;0.10;;;13.80;55.60;;;;;;5091677;28;20222;-58
2023/08/08 11:51:20;;;;;;;0.10;0.10;;;13.90;55.70;;;;;;5092158;28;20233;-57
2023/08/08 11:53:55;;;;;;;0.10;0.10;;;13.80;55.60;;;;;;5091662;28;20198;-57
2023/08/08 11:56:26;;;;;;;0.10;0.10;;;13.80;55.60;;;;;;5091958;28;20224;-58
2023/08/08 11:58:58;;;;;;;0.10;0.10;;;13.80;55.60;;;;;;5092026;28;20198;-58
2023/08/08 12:01:32;;;;;;;0.10;0.10;;;13.80;55.60;;;;;;5091219;28;20645;-58
2023/08/08 12:04:08;;;;;;;0.10;0.10;;;13.80;55.60;;;;;;5091956;28;20194;-58
2023/08/08 12:06:42;;;;;;;0.10;0.10;;;13.80;55.60;;;;;;5091161;28;20249;-58
2023/08/08 12:09:15;;;;;;;0.10;0.10;;;13.80;55.60;;;;;;5091190;28;20251;-58
2023/08/08 12:11:45;;;;;;;0.10;0.10;;;13.80;55.60;;;;;;5091884;28;20236;-58
2023/08/08 12:14:16;;;;;;;0.10;0.10;;;13.80;55.60;;;;;;5092354;28;20645;-58
2023/08/08 12:16:49;;;;;;;0.10;0.10;;;13.70;55.60;;;;;;5091659;28;20222;-58
2023/08/08 12:19:21;;;;;;;0.10;0.10;;;13.70;55.60;;;;;;5090976;28;20200;-57
2023/08/08 12:21:51;;;;;;;0.15;0.15;;;13.70;55.60;;;;;;5084082;28;20653;-57
2023/08/08 12:24:22;;;;;;;0.10;0.10;;;13.70;55.50;;;;;;5085869;28;20213;-57
2023/08/08 12:26:53;;;;;;;0.10;0.10;;;13.70;55.50;;;;;;5091519;28;20274;-58
2023/08/08 12:29:23;;;;;;;0.10;0.10;;;13.70;55.60;;;;;;5090893;28;20221;-57
2023/08/08 12:31:56;;;;;;;0.10;0.10;;;13.70;55.60;;;;;;5090926;28;20602;-58
2023/08/08 12:34:26;;;;;;;0.10;0.10;;;13.60;55.50;;;;;;5091742;28;20641;-57
2023/08/08 12:36:57;;;;;;;0.10;0.10;;;13.70;55.50;;;;;;5091589;28;20685;-57
2023/08/08 12:39:28;;;;;;;0.10;0.10;;;13.60;55.50;;;;;;5091654;28;20202;-57
2023/08/08 12:41:58;;;;;;;0.10;0.10;;;13.60;55.50;;;;;;5091631;28;20194;-58
2023/08/08 12:44:29;;;;;;;0.10;0.10;;;13.60;55.50;;;;;;5091095;28;20190;-58
2023/08/08 12:47:01;;;;;;;0.10;0.10;;;13.60;55.50;;;;;;5091435;28;20617;-58
2023/08/08 12:49:32;;;;;;;0.10;0.10;;;13.60;55.40;;;;;;5091227;28;20567;-57
2023/08/08 12:52:03;;;;;;;0.10;0.10;;;13.60;55.50;;;;;;5091514;28;20205;-57
2023/08/08 12:54:33;;;;;;;0.10;0.10;;;13.60;55.50;;;;;;5074857;28;20202;-57
2023/08/08 12:57:04;;;;;;;0.10;0.10;;;13.60;55.50;;;;;;5072115;28;20211;-58
2023/08/08 12:59:35;;;;;;;0.10;0.10;;;13.50;55.40;;;;;;5071413;28;20199;-58
2023/08/08 13:02:07;;;;;;;0.10;0.10;;;13.60;55.50;;;;;;5073927;28;20240;-57
2023/08/08 13:04:38;;;;;;;0.10;0.10;;;13.50;55.40;;;;;;5075442;28;20194;-57
2023/08/08 13:07:09;;;;;;;0.10;0.10;;;13.50;55.40;;;;;;5075503;28;20219;-58
2023/08/08 13:09:40;;;;;;;0.10;0.10;;;13.50;56.00;;;;;;5077525;28;20307;-57